Time;durP1;ratioP1;P1;durP2;ratioP2;P2;SDS_P1;SDS_P2;PMS_P1;PMS_P2;Temp;Humidity;BMP_temperature;BMP_pressure;BME280_temperature;BME280_humidity;BME280_pressure;Samples;Min_cycle;Max_cycle;Signal;HPM_P1;HPM_P2
2023/01/11 00:02:03;;;;;;;20.20;6.93;;;;;;;9.87;100.00;100264.22;5028096;28;20067;-73
2023/01/11 00:04:29;;;;;;;20.00;6.25;;;;;;;9.87;100.00;100274.72;5036835;28;20543;-72
2023/01/11 00:06:55;;;;;;;10.25;5.85;;;;;;;9.91;100.00;100272.13;5034058;28;20116;-73
2023/01/11 00:09:21;;;;;;;17.63;6.93;;;;;;;9.90;100.00;100275.66;5034390;28;20457;-72
2023/01/11 00:11:46;;;;;;;16.17;6.35;;;;;;;9.94;100.00;100273.91;5033128;28;20053;-73
2023/01/11 00:14:13;;;;;;;13.88;5.97;;;;;;;9.98;100.00;100257.31;5032400;28;20033;-74
2023/01/11 00:16:39;;;;;;;10.45;6.20;;;;;;;9.99;100.00;100266.09;5034389;28;20059;-73
2023/01/11 00:19:04;;;;;;;13.20;5.50;;;;;;;10.00;100.00;100281.88;5031359;28;20021;-73
2023/01/11 00:21:30;;;;;;;10.95;5.32;;;;;;;10.03;100.00;100271.38;5027604;28;20025;-73
2023/01/11 00:23:55;;;;;;;12.15;6.22;;;;;;;10.03;100.00;100267.88;5045414;28;20067;-73
2023/01/11 00:26:20;;;;;;;15.65;6.05;;;;;;;10.02;100.00;100274.88;5043689;28;20095;-73
2023/01/11 00:28:49;;;;;;;16.98;6.38;;;;;;;10.04;100.00;100272.28;5032536;28;20429;-73
2023/01/11 00:31:16;;;;;;;12.77;5.88;;;;;;;10.01;100.00;100278.41;5031641;28;20412;-74
2023/01/11 00:33:41;;;;;;;12.77;5.85;;;;;;;10.04;100.00;100277.53;5032988;28;20029;-73
2023/01/11 00:36:07;;;;;;;11.70;6.13;;;;;;;10.03;100.00;100266.13;5032184;28;20037;-74
2023/01/11 00:38:52;;;;;;;13.88;6.28;;;;;;;10.05;100.00;100277.56;5046135;28;20135;-74
2023/01/11 00:49:33;;;;;;;9.80;5.78;;;;;;;10.04;100.00;100254.75;5035865;28;20044;-73
2023/01/11 00:51:59;;;;;;;15.80;6.15;;;;;;;10.04;100.00;100267.91;5029232;28;20477;-74
2023/01/11 00:54:24;;;;;;;10.65;5.75;;;;;;;10.07;100.00;100257.41;5033870;28;20032;-74
2023/01/11 00:56:49;;;;;;;13.90;6.40;;;;;;;10.09;100.00;100270.56;5041621;28;20036;-73
2023/01/11 00:59:15;;;;;;;12.10;6.45;;;;;;;10.05;100.00;100259.16;5033448;28;20025;-74
2023/01/11 01:01:40;;;;;;;12.75;5.95;;;;;;;10.07;100.00;100273.19;5030721;28;20091;-74
2023/01/11 01:04:06;;;;;;;9.10;5.97;;;;;;;10.06;100.00;100273.16;5033323;28;20442;-74
2023/01/11 01:06:31;;;;;;;11.65;6.20;;;;;;;10.06;100.00;100278.41;5032154;28;20134;-74
2023/01/11 01:08:56;;;;;;;14.23;6.85;;;;;;;10.06;100.00;100268.78;5045447;28;20138;-74
2023/01/11 01:11:23;;;;;;;10.30;6.30;;;;;;;10.08;100.00;100280.19;5032600;28;20111;-74
2023/01/11 01:16:32;;;;;;;;;;;;;;;10.01;100.00;100249.47;5033393;28;20086;-75
2023/01/11 01:18:58;;;;;;;8.25;6.15;;;;;;;10.01;100.00;100245.94;5030546;28;20324;-73
2023/01/11 01:21:25;;;;;;;8.73;5.93;;;;;;;10.00;100.00;100255.59;5030992;28;20473;-74
2023/01/11 01:23:54;;;;;;;10.73;5.88;;;;;;;10.03;100.00;100258.25;5038564;28;20033;-74
2023/01/11 01:26:21;;;;;;;14.07;6.32;;;;;;;10.03;100.00;100260.88;5035061;28;20172;-73
2023/01/11 01:28:46;;;;;;;11.88;6.45;;;;;;;10.04;100.00;100262.63;5063030;28;20029;-73
2023/01/11 01:31:12;;;;;;;16.85;6.90;;;;;;;10.04;100.00;100254.75;5029589;28;20445;-74
2023/01/11 01:33:38;;;;;;;11.55;6.55;;;;;;;10.03;100.00;100262.63;5032895;28;20469;-74
2023/01/11 01:36:04;;;;;;;14.25;7.13;;;;;;;10.04;100.00;100262.63;5032706;28;20026;-72
2023/01/11 01:38:29;;;;;;;15.25;7.55;;;;;;;10.07;100.00;100259.16;5036725;28;20599;-74
2023/01/11 01:40:55;;;;;;;12.55;8.52;;;;;;;10.06;100.00;100271.41;5031934;28;20104;-73
2023/01/11 01:43:22;;;;;;;17.30;7.50;;;;;;;10.06;100.00;100273.16;5031570;28;20029;-74
2023/01/11 01:45:49;;;;;;;10.25;6.40;;;;;;;10.13;100.00;100257.47;5031342;28;20028;-73
2023/01/11 01:48:19;;;;;;;9.20;6.60;;;;;;;10.13;100.00;100277.59;5045448;28;20060;-73
2023/01/11 01:50:46;;;;;;;15.23;6.82;;;;;;;10.15;100.00;100273.25;5023817;28;20022;-73
2023/01/11 01:53:17;;;;;;;11.52;6.20;;;;;;;10.18;100.00;100301.31;5030025;28;20025;-73
2023/01/11 01:55:49;;;;;;;10.15;5.93;;;;;;;10.21;100.00;100280.31;5028369;28;20028;-74
2023/01/11 01:58:19;;;;;;;12.13;5.70;;;;;;;10.22;100.00;100277.69;5030555;28;20071;-73
2023/01/11 02:00:45;;;;;;;9.05;5.53;;;;;;;10.24;100.00;100280.31;5026547;28;20081;-73
2023/01/11 02:03:16;;;;;;;7.70;4.75;;;;;;;10.31;100.00;100297.94;5030452;28;20056;-73
2023/01/11 02:05:42;;;;;;;9.18;3.97;;;;;;;10.34;100.00;100297.09;5032493;28;20112;-73
2023/01/11 02:08:16;;;;;;;12.77;3.97;;;;;;;10.35;100.00;100322.53;5062316;28;20120;-73
2023/01/11 02:10:42;;;;;;;5.55;3.40;;;;;;;10.35;100.00;100297.13;5031672;28;20056;-73
2023/01/11 02:13:11;;;;;;;11.48;3.25;;;;;;;10.36;100.00;100290.13;5030779;28;20116;-72
2023/01/11 02:15:36;;;;;;;8.20;3.10;;;;;;;10.37;100.00;100297.16;5031988;28;20033;-73
2023/01/11 02:18:02;;;;;;;7.88;3.08;;;;;;;10.38;100.00;100291.88;5029856;28;20035;-73
2023/01/11 02:20:56;;;;;;;10.35;3.03;;;;;;;10.42;100.00;100303.34;5030954;28;20022;-72
2023/01/11 02:23:51;;;;;;;7.83;2.33;;;;;;;10.44;100.00;100289.31;5031457;28;20063;-73
2023/01/11 02:26:54;;;;;;;13.50;3.10;;;;;;;10.48;100.00;100297.22;5023676;28;20025;-73
2023/01/11 02:29:28;;;;;;;11.50;2.70;;;;;;;10.51;100.00;100284.09;5031149;28;20048;-74
2023/01/11 02:32:15;;;;;;;7.53;2.50;;;;;;;10.54;100.00;100307.78;5028393;28;20040;-73
2023/01/11 02:34:57;;;;;;;10.18;1.65;;;;;;;10.59;100.00;100287.66;5037310;28;20025;-73
2023/01/11 02:37:28;;;;;;;8.80;2.25;;;;;;;10.62;100.00;100298.19;5036416;28;20385;-73
2023/01/11 02:40:48;;;;;;;11.25;2.00;;;;;;;10.64;100.00;100301.75;5032246;28;20460;-73
2023/01/11 02:46:24;;;;;;;12.07;2.30;;;;;;;10.67;100.00;100304.38;5001539;28;20041;-73
2023/01/11 02:49:06;;;;;;;9.55;2.17;;;;;;;10.68;100.00;100300.03;5023051;28;20474;-73
2023/01/11 02:51:42;;;;;;;10.95;2.38;;;;;;;10.68;100.00;100300.91;5033514;28;20035;-73
2023/01/11 02:54:13;;;;;;;12.60;1.90;;;;;;;10.64;100.00;100309.63;5036881;28;20426;-73
2023/01/11 02:56:44;;;;;;;7.22;1.60;;;;;;;10.60;100.00;100313.13;5030105;28;20381;-73
2023/01/11 02:59:14;;;;;;;8.75;1.73;;;;;;;10.55;100.00;100317.44;5024802;28;20029;-74
2023/01/11 03:01:44;;;;;;;9.40;2.03;;;;;;;10.53;100.00;100329.72;5029437;28;20057;-73
2023/01/11 03:04:25;;;;;;;8.00;2.30;;;;;;;10.48;100.00;100328.81;5032044;28;20026;-72
2023/01/11 03:07:00;;;;;;;13.38;3.80;;;;;;;10.48;100.00;100320.91;5033187;28;20112;-73
2023/01/11 03:09:47;;;;;;;14.55;3.78;;;;;;;10.48;100.00;100320.91;5051286;28;20029;-73
2023/01/11 03:12:53;;;;;;;16.65;3.63;;;;;;;10.52;100.00;100327.97;5036735;28;20496;-73
2023/01/11 03:15:18;;;;;;;18.52;4.63;;;;;;;10.49;100.00;100335.84;5029715;28;20437;-73
2023/01/11 03:17:55;;;;;;;23.73;4.15;;;;;;;10.48;100.00;100340.19;5040881;28;20056;-73
2023/01/11 03:20:27;;;;;;;17.45;4.35;;;;;;;10.47;100.00;100325.28;5030770;28;20033;-73
2023/01/11 03:23:22;;;;;;;19.48;7.20;;;;;;;10.48;100.00;100328.81;5027020;28;20120;-73
2023/01/11 03:25:59;;;;;;;24.40;7.15;;;;;;;10.45;100.00;100333.16;5021720;28;20047;-73
2023/01/11 03:28:24;;;;;;;31.13;6.07;;;;;;;10.48;100.00;100334.94;5033116;28;20032;-72
2023/01/11 03:31:28;;;;;;;25.48;5.18;;;;;;;10.44;100.00;100320.88;5031377;28;20029;-74
2023/01/11 03:33:57;;;;;;;;;;;;;;;10.46;100.00;100336.69;5034250;28;20049;-73
2023/01/11 03:36:33;;;;;;;28.15;5.57;;;;;;;10.44;100.00;100331.41;5041268;28;21034;-72
2023/01/11 03:39:24;;;;;;;25.95;4.18;;;;;;;10.42;100.00;100341.03;5032255;28;20021;-73
2023/01/11 03:41:54;;;;;;;30.25;4.63;;;;;;;10.43;100.00;100348.06;5024055;28;20103;-74
2023/01/11 03:44:22;;;;;;;24.52;4.88;;;;;;;10.41;100.00;100339.25;5038924;28;20381;-72
2023/01/11 03:46:57;;;;;;;24.88;4.88;;;;;;;10.43;100.00;100366.47;5030505;28;20030;-72
2023/01/11 03:49:36;;;;;;;18.75;4.13;;;;;;;10.40;100.00;100357.66;5046459;28;20110;-72
2023/01/11 03:52:06;;;;;;;20.45;4.45;;;;;;;10.41;100.00;100362.94;5038838;28;20025;-73
2023/01/11 03:54:32;;;;;;;22.30;5.07;;;;;;;10.40;100.00;100361.16;5030823;28;20040;-73
2023/01/11 03:57:06;;;;;;;20.52;4.72;;;;;;;10.40;100.00;100365.53;5033042;28;20036;-74
2023/01/11 03:59:33;;;;;;;23.42;3.83;;;;;;;10.40;100.00;100371.69;5040692;28;20064;-74
2023/01/11 04:01:59;;;;;;;37.33;4.45;;;;;;;10.41;100.00;100372.56;5029925;28;20053;-73
2023/01/11 04:04:25;;;;;;;34.20;4.30;;;;;;;10.37;100.00;100390.06;5042474;28;20036;-74
2023/01/11 04:06:50;;;;;;;26.73;3.50;;;;;;;10.40;100.00;100403.25;5034790;28;20033;-72
2023/01/11 04:09:15;;;;;;;22.58;3.63;;;;;;;10.39;100.00;100409.38;5034639;28;20026;-73
2023/01/11 04:11:41;;;;;;;28.27;4.22;;;;;;;10.40;100.00;100413.75;5031010;28;20564;-72
2023/01/11 04:14:06;;;;;;;18.10;2.70;;;;;;;10.38;100.00;100394.47;5034734;28;20026;-72
2023/01/11 04:16:32;;;;;;;36.00;4.75;;;;;;;10.37;100.00;100402.34;5033387;28;20425;-73
2023/01/11 04:18:57;;;;;;;33.28;3.45;;;;;;;10.36;100.00;100414.59;5028502;28;20037;-73
2023/01/11 04:21:23;;;;;;;24.88;3.20;;;;;;;10.36;100.00;100409.34;5027704;28;20018;-73
2023/01/11 04:23:48;;;;;;;25.88;3.10;;;;;;;10.32;100.00;100402.25;5033476;28;20052;-74
2023/01/11 04:26:16;;;;;;;25.95;3.50;;;;;;;10.29;100.00;100405.75;5033720;28;20017;-74
2023/01/11 04:28:42;;;;;;;28.85;3.38;;;;;;;10.26;100.00;100410.97;5033502;28;20442;-73
2023/01/11 04:31:07;;;;;;;21.63;3.17;;;;;;;10.27;100.00;100411.88;5031104;28;20029;-72
2023/01/11 04:33:33;;;;;;;18.58;2.70;;;;;;;10.25;100.00;100429.34;5033966;28;20040;-73
2023/01/11 04:35:58;;;;;;;23.48;2.88;;;;;;;10.23;100.00;100416.19;5064790;28;20117;-74
2023/01/11 04:38:25;;;;;;;23.95;3.83;;;;;;;10.20;100.00;100431.94;5032463;28;20053;-74
2023/01/11 04:42:17;;;;;;;26.20;3.17;;;;;;;10.19;100.00;100426.69;5028683;28;20025;-74
2023/01/11 04:43:35;;;;;;;27.10;3.35;;;;;;;10.15;100.00;100432.72;5030746;28;20563;-74
2023/01/11 04:46:01;;;;;;;21.25;3.30;;;;;;;10.15;100.00;100432.72;5031895;28;20033;-75
2023/01/11 04:48:26;;;;;;;22.85;2.60;;;;;;;10.15;100.00;100438.00;5033863;28;20033;-72
2023/01/11 04:50:51;;;;;;;22.52;3.17;;;;;;;10.14;100.00;100437.13;5032052;28;20072;-73
2023/01/11 04:53:17;;;;;;;25.73;3.35;;;;;;;10.13;100.00;100446.75;5033918;28;20021;-73
2023/01/11 04:55:42;;;;;;;15.77;2.42;;;;;;;10.12;100.00;100445.00;5031945;28;20037;-73
2023/01/11 04:58:07;;;;;;;24.85;2.50;;;;;;;10.16;100.00;100442.38;5031644;28;20420;-73
2023/01/11 05:00:33;;;;;;;25.75;2.88;;;;;;;10.08;100.00;100455.47;5032702;28;20067;-72
2023/01/11 05:02:58;;;;;;;16.45;2.53;;;;;;;10.04;100.00;100451.91;5029329;28;20108;-73
2023/01/11 05:05:24;;;;;;;16.98;2.45;;;;;;;10.04;100.00;100451.03;5030366;28;20060;-74
2023/01/11 05:07:49;;;;;;;20.15;2.50;;;;;;;10.02;100.00;100451.00;5040259;28;20028;-74
2023/01/11 05:10:15;;;;;;;16.90;2.40;;;;;;;9.98;100.00;100454.44;5031172;28;20120;-73
2023/01/11 05:12:40;;;;;;;20.55;2.65;;;;;;;9.99;100.00;100460.59;5032218;28;20043;-73
2023/01/11 05:15:06;;;;;;;20.83;3.22;;;;;;;9.94;100.00;100460.53;5032039;28;20026;-72
2023/01/11 05:17:31;;;;;;;20.90;2.42;;;;;;;9.87;100.00;100472.69;5033709;28;20088;-73
2023/01/11 05:19:57;;;;;;;11.50;2.35;;;;;;;9.85;100.00;100476.16;5036344;28;20062;-73
2023/01/11 05:22:22;;;;;;;22.42;3.45;;;;;;;9.85;100.00;100477.06;5031120;28;20040;-73
2023/01/11 05:24:47;;;;;;;27.70;4.30;;;;;;;9.82;100.00;100479.66;5032715;28;20037;-73
2023/01/11 05:27:13;;;;;;;18.67;2.63;;;;;;;9.80;100.00;100489.25;5031564;28;20025;-74
2023/01/11 05:29:38;;;;;;;14.82;1.95;;;;;;;9.77;100.00;100484.84;5032306;28;20093;-73
2023/01/11 05:32:04;;;;;;;16.58;2.88;;;;;;;9.78;100.00;100485.75;5030095;28;20026;-74
2023/01/11 05:34:29;;;;;;;21.73;2.72;;;;;;;9.77;100.00;100495.34;5030633;28;20075;-73
2023/01/11 05:36:54;;;;;;;16.08;2.53;;;;;;;9.72;100.00;100485.63;5032619;28;20029;-73
2023/01/11 05:39:22;;;;;;;13.50;2.35;;;;;;;9.69;100.00;100502.25;5030521;28;20027;-74
2023/01/11 05:41:48;;;;;;;16.02;2.50;;;;;;;9.66;100.00;100496.94;5031929;28;20358;-74
2023/01/11 05:46:57;;;;;;;;;;;;;;;9.63;100.00;100507.41;5023264;28;20083;-73
2023/01/11 05:49:22;;;;;;;13.32;1.90;;;;;;;9.57;100.00;100504.69;5030322;28;19960;-74
2023/01/11 05:51:48;;;;;;;11.57;2.08;;;;;;;9.56;100.00;100506.44;5029102;28;20033;-73
2023/01/11 05:54:13;;;;;;;11.30;1.58;;;;;;;9.56;100.00;100501.19;5029609;28;20112;-73
2023/01/11 05:56:41;;;;;;;13.98;2.20;;;;;;;9.55;100.00;100506.41;5030303;28;20033;-73
2023/01/11 05:59:07;;;;;;;14.95;2.30;;;;;;;9.54;100.00;100502.03;5041472;28;20017;-74
2023/01/11 06:01:33;;;;;;;10.65;2.03;;;;;;;9.55;100.00;100519.53;5034557;28;20076;-74
2023/01/11 06:03:59;;;;;;;18.15;2.25;;;;;;;9.49;100.00;100524.69;5031863;28;20077;-73
2023/01/11 06:06:24;;;;;;;11.88;1.98;;;;;;;9.43;100.00;100529.00;5031224;28;20381;-73
2023/01/11 06:08:50;;;;;;;16.70;2.83;;;;;;;9.43;100.00;100542.13;5035831;28;20086;-72
2023/01/11 06:11:15;;;;;;;17.45;2.30;;;;;;;9.41;100.00;100542.94;5033322;28;20116;-73
2023/01/11 06:13:41;;;;;;;16.65;2.60;;;;;;;9.41;100.00;100545.56;5033363;28;20473;-73
2023/01/11 06:16:10;;;;;;;18.58;2.10;;;;;;;9.39;100.00;100550.81;5030180;28;20025;-72
2023/01/11 06:18:41;;;;;;;20.65;2.88;;;;;;;9.37;100.00;100557.78;5031317;28;20433;-72
2023/01/11 06:21:08;;;;;;;19.05;1.80;;;;;;;9.32;100.00;100564.72;5016324;28;20021;-72
2023/01/11 06:23:36;;;;;;;16.83;2.65;;;;;;;9.34;100.00;100557.72;5032424;28;20079;-73
2023/01/11 06:26:04;;;;;;;15.63;2.00;;;;;;;9.33;100.00;100566.44;5026653;28;20033;-73
2023/01/11 06:28:30;;;;;;;16.88;2.67;;;;;;;9.28;100.00;100558.50;5043238;28;20033;-72
2023/01/11 06:30:57;;;;;;;15.57;2.65;;;;;;;9.25;100.00;100565.44;5030546;28;21260;-72
2023/01/11 06:33:25;;;;;;;14.98;2.67;;;;;;;9.22;100.00;100568.00;5024429;28;20056;-72
2023/01/11 06:35:51;;;;;;;19.85;2.60;;;;;;;9.18;100.00;100571.44;5028117;28;20330;-72
2023/01/11 06:38:17;;;;;;;11.98;2.72;;;;;;;9.16;100.00;100567.91;5029606;28;20086;-72
2023/01/11 06:40:55;;;;;;;12.77;3.05;;;;;;;9.09;100.00;100570.41;5033869;28;20469;-72
2023/01/11 06:43:22;;;;;;;15.45;2.95;;;;;;;9.05;100.00;100580.84;5024148;28;20064;-73
2023/01/11 06:45:48;;;;;;;21.25;3.05;;;;;;;8.98;100.00;100579.84;5026525;28;20025;-74
2023/01/11 06:48:13;;;;;;;15.10;3.38;;;;;;;8.94;100.00;100583.28;5024777;28;20041;-74
2023/01/11 06:50:38;;;;;;;14.20;2.40;;;;;;;8.91;100.00;100583.19;5024540;28;20416;-74
2023/01/11 06:53:04;;;;;;;11.52;2.40;;;;;;;8.89;100.00;100592.78;5030017;28;20108;-73
2023/01/11 06:55:29;;;;;;;12.02;2.42;;;;;;;8.87;100.00;100595.38;5030535;28;20140;-73
2023/01/11 06:57:55;;;;;;;17.58;2.53;;;;;;;8.85;100.00;100601.47;5032263;28;20033;-72
2023/01/11 07:00:21;;;;;;;24.55;3.40;;;;;;;8.87;100.00;100603.25;5029678;28;20509;-72
2023/01/11 07:02:48;;;;;;;24.88;3.15;;;;;;;8.85;100.00;100601.47;5025434;28;20029;-72
2023/01/11 07:05:14;;;;;;;20.60;2.85;;;;;;;8.83;100.00;100608.41;5031006;28;20654;-73
2023/01/11 07:07:40;;;;;;;15.00;3.05;;;;;;;8.82;100.00;100604.91;5030358;28;20045;-73
2023/01/11 07:10:08;;;;;;;25.38;2.85;;;;;;;8.83;100.00;100611.03;5033495;28;20034;-72
2023/01/11 07:12:34;;;;;;;25.35;2.85;;;;;;;8.80;100.00;100617.09;5036508;28;20485;-73
2023/01/11 07:15:00;;;;;;;26.35;2.75;;;;;;;8.76;100.00;100624.03;5036229;28;20104;-72
2023/01/11 07:17:25;;;;;;;15.98;2.00;;;;;;;8.74;100.00;100622.22;5033330;28;20120;-72
2023/01/11 07:19:50;;;;;;;17.00;2.95;;;;;;;8.72;100.00;100632.69;5042604;28;20026;-71
2023/01/11 07:22:16;;;;;;;30.80;2.40;;;;;;;8.70;100.00;100630.91;5041789;28;20043;-72
2023/01/11 07:24:41;;;;;;;24.60;3.03;;;;;;;8.66;100.00;100642.19;5042886;28;20047;-71
2023/01/11 07:27:07;;;;;;;25.17;2.72;;;;;;;8.63;100.00;100643.00;5043115;28;20033;-72
2023/01/11 07:29:32;;;;;;;20.83;2.90;;;;;;;8.61;100.00;100636.81;5042953;28;20025;-72
2023/01/11 07:31:57;;;;;;;22.40;3.05;;;;;;;8.60;100.00;100645.56;5041327;28;20114;-71
2023/01/11 07:34:23;;;;;;;15.10;2.22;;;;;;;8.56;100.00;100656.81;5037673;28;20029;-73
2023/01/11 07:36:48;;;;;;;18.17;2.70;;;;;;;8.53;100.00;100646.25;5029561;28;20442;-73
2023/01/11 07:39:14;;;;;;;22.33;2.58;;;;;;;8.50;100.00;100656.69;5033145;28;20381;-73
2023/01/11 07:44:23;;;;;;;25.63;2.83;;;;;;;8.44;100.00;100660.91;5030396;28;20406;-72
2023/01/11 07:46:49;;;;;;;20.30;2.75;;;;;;;8.45;100.00;100664.47;5035657;28;20029;-74
2023/01/11 07:49:14;;;;;;;36.67;3.83;;;;;;;8.46;100.00;100667.97;5037911;28;20022;-73
2023/01/11 07:51:39;;;;;;;29.42;3.15;;;;;;;8.41;100.00;100671.34;5038479;28;20028;-72
2023/01/11 07:54:05;;;;;;;24.38;3.38;;;;;;;8.38;100.00;100681.75;5040684;28;20021;-73
2023/01/11 07:56:30;;;;;;;15.77;2.13;;;;;;;8.38;100.00;100680.84;5040169;28;20065;-72
2023/01/11 07:58:57;;;;;;;25.75;3.70;;;;;;;8.38;100.00;100684.38;5030899;28;20024;-73
2023/01/11 08:01:23;;;;;;;29.17;3.05;;;;;;;8.35;100.00;100692.16;5037772;28;20560;-74
2023/01/11 08:03:49;;;;;;;21.92;2.63;;;;;;;8.31;100.00;100687.69;5040268;28;20090;-73
2023/01/11 08:06:15;;;;;;;24.20;3.08;;;;;;;8.29;100.00;100702.53;5042507;28;20468;-73
2023/01/11 08:08:41;;;;;;;20.38;3.33;;;;;;;8.29;100.00;100707.75;5040776;28;20468;-74
2023/01/11 08:16:37;;;;;;;20.83;2.55;;;;;;;8.21;100.00;100704.94;5031136;28;20047;-73
2023/01/11 08:19:03;;;;;;;20.65;2.70;;;;;;;8.21;100.00;100709.31;5031097;28;20018;-73
2023/01/11 08:21:29;;;;;;;17.08;3.17;;;;;;;8.21;100.00;100709.31;5013728;28;20096;-73
2023/01/11 08:23:56;;;;;;;29.83;2.97;;;;;;;8.20;100.00;100713.66;5025089;28;20021;-73
2023/01/11 08:26:23;;;;;;;15.57;2.90;;;;;;;8.22;100.00;100716.31;5030224;28;20029;-72
2023/01/11 08:28:48;;;;;;;33.00;3.08;;;;;;;8.20;100.00;100724.13;5033435;28;20470;-72
2023/01/11 08:31:14;;;;;;;26.88;2.95;;;;;;;8.18;100.00;100727.56;5040402;28;20031;-72
2023/01/11 08:33:39;;;;;;;17.58;2.83;;;;;;;8.16;100.00;100724.03;5032869;28;20490;-72
2023/01/11 08:36:06;;;;;;;24.88;2.97;;;;;;;8.16;100.00;100732.78;5030507;28;20029;-72
2023/01/11 08:38:31;;;;;;;24.13;3.17;;;;;;;8.18;100.00;100724.94;5032024;28;20021;-72
2023/01/11 08:40:57;;;;;;;24.63;2.50;;;;;;;8.22;100.00;100718.94;5033275;28;20021;-71
2023/01/11 08:43:23;;;;;;;19.88;3.05;;;;;;;8.25;100.00;100727.75;5033169;28;20026;-72
2023/01/11 08:45:51;;;;;;;16.42;2.40;;;;;;;8.28;100.00;100724.34;5028702;28;20116;-71
2023/01/11 08:48:16;;;;;;;16.42;2.42;;;;;;;8.27;100.00;100730.41;5028503;28;20029;-72
2023/01/11 08:50:43;;;;;;;25.20;3.45;;;;;;;8.29;100.00;100723.50;5032671;28;20029;-71
2023/01/11 08:53:12;;;;;;;26.88;3.05;;;;;;;8.30;100.00;100725.25;5034607;28;20036;-72
2023/01/11 08:55:40;;;;;;;27.38;2.90;;;;;;;8.31;100.00;100734.88;5031738;28;20041;-71
2023/01/11 08:58:05;;;;;;;20.77;2.95;;;;;;;8.35;100.00;100733.22;5031855;28;20473;-72
2023/01/11 09:00:31;;;;;;;17.38;3.03;;;;;;;8.40;100.00;100736.84;4995320;28;1088982;-72
2023/01/11 09:03:01;;;;;;;16.58;2.47;;;;;;;8.42;100.00;100745.63;5030273;28;20152;-72
2023/01/11 09:05:26;;;;;;;28.17;3.22;;;;;;;8.43;100.00;100747.41;5031015;28;20029;-71
2023/01/11 09:07:55;;;;;;;27.98;2.65;;;;;;;8.46;100.00;100752.75;5032102;28;20080;-71
2023/01/11 09:10:21;;;;;;;28.33;3.38;;;;;;;8.48;100.00;100745.81;5034371;28;20026;-72
2023/01/11 09:12:46;;;;;;;25.65;2.88;;;;;;;8.53;100.00;100756.41;5035946;28;20025;-72
2023/01/11 09:15:11;;;;;;;22.77;3.17;;;;;;;8.56;100.00;100749.50;5044307;28;20179;-72
2023/01/11 09:17:37;;;;;;;20.92;2.63;;;;;;;8.59;100.00;100749.56;5033712;28;20052;-72
2023/01/11 09:20:02;;;;;;;25.63;3.78;;;;;;;8.67;100.00;100757.63;5041036;28;20017;-71
2023/01/11 09:22:28;;;;;;;13.75;2.13;;;;;;;8.70;100.00;100762.94;5030142;28;20068;-71
2023/01/11 09:24:54;;;;;;;24.40;2.67;;;;;;;8.71;100.00;100748.97;5033190;28;20029;-72
2023/01/11 09:27:19;;;;;;;26.30;3.28;;;;;;;8.70;100.00;100752.44;5033582;28;20033;-73
2023/01/11 09:29:45;;;;;;;13.23;2.47;;;;;;;8.75;100.00;100750.81;5032171;28;20037;-71
2023/01/11 09:32:10;;;;;;;20.58;1.83;;;;;;;8.80;100.00;100752.66;5031698;28;20017;-72
2023/01/11 09:34:36;;;;;;;19.60;4.00;;;;;;;8.88;100.00;100754.56;5031777;28;20042;-71
2023/01/11 09:37:05;;;;;;;26.00;2.85;;;;;;;8.88;100.00;100761.56;5033842;28;20108;-72
2023/01/11 09:39:32;;;;;;;17.02;2.10;;;;;;;8.96;100.00;100760.00;5033257;28;20094;-72
2023/01/11 09:42:17;;;;;;;16.48;2.67;;;;;;;9.00;100.00;100756.59;5033089;28;20025;-72
2023/01/11 09:44:55;;;;;;;9.52;1.80;;;;;;;9.05;100.00;100752.34;5029894;28;20032;-72
2023/01/11 09:47:29;;;;;;;20.95;2.72;;;;;;;9.19;100.00;100759.63;5035768;28;20100;-71
2023/01/11 09:49:57;;;;;;;;;;;;;;;9.40;100.00;100770.56;5033130;28;20037;-72
2023/01/11 09:52:39;;;;;;;17.15;3.65;;;;;;;9.59;100.00;100773.53;5030284;28;20019;-71
2023/01/11 09:55:10;;;;;;;24.38;3.05;;;;;;;9.71;100.00;100799.16;5034475;28;20028;-70
2023/01/11 09:57:49;;;;;;;17.15;2.33;;;;;;;9.84;100.00;100781.91;5031153;28;20102;-80
2023/01/11 10:00:18;;;;;;;21.27;2.97;;;;;;;9.93;100.00;100787.34;5032505;28;20045;-71
2023/01/11 10:03:09;;;;;;;15.60;2.65;;;;;;;10.13;100.00;100792.91;5032177;28;20052;-72
2023/01/11 10:05:50;;;;;;;20.05;2.65;;;;;;;10.37;100.00;100803.00;5029517;28;20041;-72
2023/01/11 10:08:32;;;;;;;20.38;3.10;;;;;;;10.33;100.00;100806.41;5026471;28;20370;-72
2023/01/11 10:11:18;;;;;;;21.35;2.70;;;;;;;10.40;100.00;100818.84;5030327;28;20032;-72
2023/01/11 10:14:02;;;;;;;21.05;2.70;;;;;;;10.66;100.00;100826.28;5032016;28;20492;-71
2023/01/11 10:16:37;;;;;;;;;;;;;;;10.76;100.00;100833.47;5031312;28;20037;-72
2023/01/11 10:19:24;;;;;;;13.90;2.53;;;;;;;10.87;100.00;100832.75;5029988;28;19994;-72
2023/01/11 10:21:54;;;;;;;19.63;2.58;;;;;;;10.90;100.00;100840.69;5029312;28;20058;-72
2023/01/11 10:24:28;;;;;;;20.63;3.10;;;;;;;10.78;100.00;100834.38;5030057;28;20378;-72
2023/01/11 10:26:56;;;;;;;;;;;;;;;10.35;100.00;100846.84;5029544;28;20044;-73
2023/01/11 10:32:52;;;;;;;16.13;2.50;;;;;;;10.09;100.00;100841.94;5034497;28;20032;-72
2023/01/11 10:35:46;;;;;;;21.63;3.35;;;;;;;10.12;100.00;100833.25;5031361;28;20026;-73
2023/01/11 10:41:47;;;;;;;24.33;2.70;;;;;;;9.95;100.00;100839.03;5032050;28;20034;-73
2023/01/11 10:44:30;;;;;;;15.52;3.15;;;;;;;10.04;100.00;100830.47;5033909;28;20028;-74
2023/01/11 10:46:56;;;;;;;24.23;3.35;;;;;;;10.08;100.00;100834.91;5023498;28;20034;-73
2023/01/11 10:49:58;;;;;;;16.13;2.00;;;;;;;10.11;100.00;100832.34;5030608;28;20025;-73
2023/01/11 10:52:40;;;;;;;21.33;3.03;;;;;;;10.04;100.00;100822.56;5050473;28;20086;-73
2023/01/11 10:55:15;;;;;;;22.33;2.20;;;;;;;10.38;100.00;100825.84;5031656;28;20071;-73
2023/01/11 10:58:02;;;;;;;21.90;3.03;;;;;;;10.49;100.00;100818.13;5031701;28;20098;-72
2023/01/11 11:00:32;;;;;;;14.10;2.53;;;;;;;10.45;100.00;100818.94;5039217;28;20049;-73
2023/01/11 11:03:26;;;;;;;18.88;2.30;;;;;;;10.29;100.00;100817.75;5040792;28;20033;-72
2023/01/11 11:06:05;;;;;;;27.33;2.92;;;;;;;10.20;100.00;100830.72;5037523;28;20024;-73
2023/01/11 11:08:57;;;;;;;13.30;2.25;;;;;;;9.90;100.00;100824.03;5030108;28;20482;-72
2023/01/11 11:11:40;;;;;;;20.48;3.10;;;;;;;9.91;100.00;100829.31;5030382;28;20470;-73
2023/01/11 11:14:18;;;;;;;16.13;3.08;;;;;;;9.81;100.00;100821.25;5046486;28;20043;-71
2023/01/11 11:16:49;;;;;;;18.65;2.58;;;;;;;10.00;100.00;100848.75;5011226;28;20041;-74
2023/01/11 11:19:24;;;;;;;23.02;2.75;;;;;;;9.90;100.00;100824.03;5011898;28;20548;-75
2023/01/11 11:21:51;;;;;;;14.52;2.20;;;;;;;9.88;100.00;100828.41;5016040;28;20374;-72
2023/01/11 11:24:23;;;;;;;21.48;2.60;;;;;;;9.86;100.00;100832.72;5026336;28;20504;-74
2023/01/11 11:26:56;;;;;;;19.17;2.55;;;;;;;9.73;100.00;100827.25;5030248;28;20025;-72
2023/01/11 11:29:28;;;;;;;25.77;2.88;;;;;;;9.72;100.00;100829.84;5030616;28;20029;-73
2023/01/11 11:31:54;;;;;;;19.88;3.13;;;;;;;9.84;100.00;100826.56;5032227;28;20314;-73
2023/01/11 11:34:21;;;;;;;15.82;2.53;;;;;;;9.90;100.00;100826.69;5031026;28;20515;-73
2023/01/11 11:36:49;;;;;;;24.63;4.03;;;;;;;9.96;100.00;100826.81;5029779;28;20022;-72
2023/01/11 11:39:27;;;;;;;29.92;3.40;;;;;;;9.97;100.00;100823.31;5029117;28;20109;-72
2023/01/11 11:41:55;;;;;;;23.70;3.65;;;;;;;10.10;100.00;100827.06;5009792;28;20759;-73
2023/01/11 11:44:25;;;;;;;21.58;2.75;;;;;;;10.07;100.00;100825.25;5011465;28;20036;-73
2023/01/11 11:47:04;;;;;;;14.32;2.35;;;;;;;9.84;100.00;100842.34;5022428;28;20029;-72
2023/01/11 11:49:31;;;;;;;19.80;2.28;;;;;;;9.80;100.00;100823.00;5030799;28;20037;-72
2023/01/11 11:51:59;;;;;;;18.60;2.65;;;;;;;9.78;100.00;100830.84;5028230;28;20482;-72
2023/01/11 11:54:34;;;;;;;19.60;3.25;;;;;;;9.67;100.00;100824.50;5027300;28;20025;-72
2023/01/11 11:57:12;;;;;;;23.40;2.47;;;;;;;9.70;100.00;100832.44;5026723;28;20032;-74
2023/01/11 11:59:38;;;;;;;13.65;2.50;;;;;;;9.88;100.00;100833.66;5025418;28;20021;-74